Time;durP1;ratioP1;P1;durP2;ratioP2;P2;SDS_P1;SDS_P2;PMS_P1;PMS_P2;Temp;Humidity;BMP_temperature;BMP_pressure;BME280_temperature;BME280_humidity;BME280_pressure;Samples;Min_cycle;Max_cycle;Signal;HPM_P1;HPM_P2
2021/01/20 00:00:05;;;;;;;3.40;1.80;;;;;;;5.18;66.41;95885.91;5016457;28;20176;-57
2021/01/20 00:02:31;;;;;;;1.47;1.37;;;;;;;4.95;67.23;95893.31;5015244;28;20283;-56
2021/01/20 00:04:56;;;;;;;1.50;1.40;;;;;;;4.96;67.68;95884.53;5015392;28;20521;-57
2021/01/20 00:07:22;;;;;;;1.67;1.47;;;;;;;5.19;67.46;95892.69;5015273;28;20275;-57
2021/01/20 00:09:47;;;;;;;1.60;1.50;;;;;;;5.30;67.42;95886.84;5015903;28;20564;-57
2021/01/20 00:12:12;;;;;;;1.27;1.17;;;;;;;5.13;68.14;95881.28;5016209;28;20196;-57
2021/01/20 00:14:39;;;;;;;1.60;1.50;;;;;;;4.92;69.15;95873.72;5014555;28;20632;-57
2021/01/20 00:17:04;;;;;;;1.60;1.50;;;;;;;4.85;69.17;95875.53;5015988;28;20172;-57
2021/01/20 00:19:30;;;;;;;1.30;1.20;;;;;;;4.87;69.44;95875.34;5015784;28;20433;-57
2021/01/20 00:21:55;;;;;;;2.23;1.70;;;;;;;4.90;70.20;95865.31;5015276;28;20231;-57
2021/01/20 00:24:20;;;;;;;1.70;1.60;;;;;;;4.91;69.71;95864.31;5015333;28;20193;-57
2021/01/20 00:26:46;;;;;;;1.57;1.20;;;;;;;4.85;71.01;95846.91;5016118;28;20204;-57
2021/01/20 00:29:11;;;;;;;1.90;1.20;;;;;;;4.71;71.78;95850.50;5015347;28;20191;-57
2021/01/20 00:31:37;;;;;;;2.20;1.67;;;;;;;4.63;71.92;95858.53;5014805;28;20176;-58
2021/01/20 00:34:02;;;;;;;2.03;1.70;;;;;;;4.66;71.85;95852.13;5014435;28;20269;-57
2021/01/20 00:36:28;;;;;;;1.90;1.27;;;;;;;4.55;71.67;95857.94;5015747;28;20177;-58
2021/01/20 00:38:53;;;;;;;1.40;1.20;;;;;;;4.43;72.74;95855.13;5014124;28;20271;-58
2021/01/20 00:41:18;;;;;;;1.80;1.70;;;;;;;4.60;72.96;95861.53;5015163;28;20280;-56
2021/01/20 00:43:44;;;;;;;1.53;1.43;;;;;;;4.41;73.52;95848.53;5014604;28;20694;-57
2021/01/20 00:46:09;;;;;;;1.53;1.40;;;;;;;4.46;74.26;95849.53;5014424;28;20638;-57
2021/01/20 00:48:35;;;;;;;1.70;1.60;;;;;;;4.23;75.42;95846.53;5015338;28;20544;-57
2021/01/20 00:51:00;;;;;;;1.63;1.40;;;;;;;4.28;75.01;95845.91;5014720;28;20243;-56
2021/01/20 00:53:25;;;;;;;1.37;1.27;;;;;;;4.39;74.87;95840.94;5014382;28;20207;-57
2021/01/20 00:55:51;;;;;;;1.50;1.40;;;;;;;4.36;75.26;95835.31;5015179;28;20178;-57
2021/01/20 00:58:16;;;;;;;1.87;1.53;;;;;;;4.38;75.46;95838.53;5014564;28;20185;-57
2021/01/20 01:00:42;;;;;;;1.70;1.60;;;;;;;4.56;74.49;95830.94;5014270;28;20184;-56
2021/01/20 01:03:07;;;;;;;1.50;1.23;;;;;;;4.55;75.50;95839.75;5014580;28;20248;-57
2021/01/20 01:05:34;;;;;;;1.83;1.70;;;;;;;4.41;75.18;95838.13;5014361;28;20204;-57
2021/01/20 01:07:59;;;;;;;1.50;1.40;;;;;;;4.43;75.76;95830.94;5014059;28;20177;-57
2021/01/20 01:10:25;;;;;;;1.47;1.37;;;;;;;4.49;75.39;95835.34;5014718;28;20418;-57
2021/01/20 01:12:50;;;;;;;1.57;1.30;;;;;;;4.54;75.12;95833.72;5014144;28;20217;-57
2021/01/20 01:15:16;;;;;;;1.53;1.43;;;;;;;4.76;74.10;95837.72;5014714;28;20209;-57
2021/01/20 01:17:41;;;;;;;1.20;1.20;;;;;;;4.66;75.02;95836.50;5014874;28;20176;-57
2021/01/20 01:20:07;;;;;;;1.43;1.33;;;;;;;4.68;74.41;95827.50;5014913;28;20682;-57
2021/01/20 01:22:32;;;;;;;1.80;1.70;;;;;;;4.86;73.67;95829.47;5012200;28;20243;-57
2021/01/20 01:24:58;;;;;;;1.13;1.07;;;;;;;4.73;74.01;95826.91;5014393;28;20537;-57
2021/01/20 01:27:23;;;;;;;1.60;1.50;;;;;;;4.88;74.06;95817.88;5014489;28;20186;-58
2021/01/20 01:29:48;;;;;;;1.13;1.13;;;;;;;4.75;74.07;95820.50;5014367;28;20179;-56
2021/01/20 01:32:14;;;;;;;1.40;1.40;;;;;;;4.74;74.72;95823.31;5014639;28;20527;-57
2021/01/20 01:34:40;;;;;;;1.00;0.90;;;;;;;4.77;73.83;95828.91;5014100;28;20188;-57
2021/01/20 01:37:05;;;;;;;1.30;1.20;;;;;;;4.82;74.47;95818.66;5014350;28;20183;-57
2021/01/20 01:39:33;;;;;;;1.40;1.30;;;;;;;4.84;74.27;95826.28;5013767;28;20461;-57
2021/01/20 01:41:59;;;;;;;1.20;1.10;;;;;;;5.03;73.67;95821.03;5014444;28;20209;-57
2021/01/20 01:44:24;;;;;;;3.23;1.47;;;;;;;5.05;73.53;95816.41;5013619;28;20462;-58
2021/01/20 01:46:50;;;;;;;1.37;1.27;;;;;;;5.20;73.25;95810.97;5014765;28;20199;-57
2021/01/20 01:49:15;;;;;;;1.40;1.23;;;;;;;5.29;72.51;95814.94;5012233;28;20222;-57
2021/01/20 01:51:41;;;;;;;1.77;1.40;;;;;;;5.08;73.14;95810.00;5013328;28;20199;-57
2021/01/20 01:54:08;;;;;;;1.50;1.40;;;;;;;5.20;73.45;95813.56;5013478;28;20241;-57
2021/01/20 01:56:34;;;;;;;1.87;1.53;;;;;;;5.08;73.02;95817.81;5012634;28;20227;-56
2021/01/20 01:58:59;;;;;;;1.40;1.30;;;;;;;4.92;73.77;95815.66;5009501;28;20426;-56
2021/01/20 02:01:24;;;;;;;1.47;1.37;;;;;;;4.92;73.89;95808.66;5014000;28;20209;-58
2021/01/20 02:03:51;;;;;;;1.30;1.20;;;;;;;4.90;73.62;95812.47;5012895;28;20201;-57
2021/01/20 02:06:17;;;;;;;1.23;1.17;;;;;;;4.88;74.59;95810.06;5013454;28;20266;-57
2021/01/20 02:08:48;;;;;;;1.40;1.30;;;;;;;4.90;74.03;95805.47;5014049;28;20793;-57
2021/01/20 02:11:32;;;;;;;1.30;1.20;;;;;;;4.88;73.89;95812.66;5013731;28;20526;-58
2021/01/20 02:14:18;;;;;;;1.60;1.43;;;;;;;4.83;74.50;95807.28;5012592;28;20448;-57
2021/01/20 02:16:54;;;;;;;1.10;1.10;;;;;;;4.87;74.24;95808.44;5013559;28;20433;-57
2021/01/20 02:19:28;;;;;;;1.43;1.37;;;;;;;4.99;74.11;95803.44;5013186;28;20825;-57
2021/01/20 02:22:30;;;;;;;1.63;1.53;;;;;;;4.81;74.34;95805.88;5013897;28;20462;-57
2021/01/20 02:25:32;;;;;;;1.37;1.10;;;;;;;4.85;74.42;95802.69;5013320;28;20442;-57
2021/01/20 02:28:06;;;;;;;1.50;1.40;;;;;;;4.98;73.74;95799.25;4981313;28;20423;-57
2021/01/20 02:30:35;;;;;;;2.20;1.70;;;;;;;5.10;73.28;95802.78;5013779;28;21011;-57
2021/01/20 02:33:02;;;;;;;1.70;1.40;;;;;;;4.98;73.44;95801.84;5013111;28;20427;-58
2021/01/20 02:35:28;;;;;;;1.40;1.20;;;;;;;5.02;73.70;95805.59;5013107;28;20809;-57
2021/01/20 02:37:55;;;;;;;2.30;1.53;;;;;;;4.97;73.88;95801.03;5013514;28;20408;-57
2021/01/20 02:40:21;;;;;;;1.40;1.30;;;;;;;5.04;74.14;95801.00;5013204;28;20423;-57
2021/01/20 02:42:47;;;;;;;1.47;1.30;;;;;;;4.95;73.71;95800.44;5013254;28;20492;-57
2021/01/20 02:45:14;;;;;;;1.27;1.17;;;;;;;5.09;74.04;95802.00;5013155;28;20641;-57
2021/01/20 02:47:41;;;;;;;1.63;1.30;;;;;;;5.12;73.23;95790.38;5012807;28;20458;-57
2021/01/20 02:50:08;;;;;;;1.17;1.07;;;;;;;5.13;73.25;95786.75;5012953;28;20526;-58
2021/01/20 02:52:44;;;;;;;1.70;1.50;;;;;;;5.05;74.03;95787.78;5012622;28;20429;-57
2021/01/20 02:55:12;;;;;;;1.70;1.60;;;;;;;5.04;74.36;95787.97;5013551;28;20430;-57
2021/01/20 02:57:38;;;;;;;1.33;1.10;;;;;;;5.04;74.02;95782.78;5013671;28;20407;-58
2021/01/20 03:00:05;;;;;;;1.60;1.50;;;;;;;4.96;73.98;95786.41;5013507;28;20411;-57
2021/01/20 03:02:33;;;;;;;1.43;1.30;;;;;;;5.02;73.89;95779.56;5013171;28;20840;-57
2021/01/20 03:05:00;;;;;;;1.63;1.30;;;;;;;4.95;74.11;95773.59;5013187;28;20449;-57
2021/01/20 03:07:29;;;;;;;1.60;1.50;;;;;;;5.15;73.30;95774.34;5012578;28;20929;-57
2021/01/20 03:09:55;;;;;;;1.30;1.20;;;;;;;5.14;73.67;95773.56;5013232;28;21000;-57
2021/01/20 03:12:26;;;;;;;1.50;1.40;;;;;;;5.08;72.99;95776.97;5012974;28;20427;-58
2021/01/20 03:14:54;;;;;;;1.30;1.10;;;;;;;5.20;73.03;95769.28;5013090;28;20539;-58
2021/01/20 03:17:19;;;;;;;1.30;1.20;;;;;;;5.20;72.72;95764.09;5015416;28;20492;-57
2021/01/20 03:19:45;;;;;;;1.93;1.63;;;;;;;5.19;72.85;95765.09;5016965;28;20411;-57
2021/01/20 03:22:10;;;;;;;1.37;1.27;;;;;;;5.08;72.99;95766.56;5016996;28;20255;-57
2021/01/20 03:24:35;;;;;;;1.80;1.20;;;;;;;5.15;73.18;95758.72;5016125;28;20724;-57
2021/01/20 03:27:01;;;;;;;2.03;1.50;;;;;;;4.83;74.02;95763.03;5015122;28;20180;-56
2021/01/20 03:29:26;;;;;;;1.37;1.27;;;;;;;4.91;74.08;95756.81;5017007;28;20191;-57
2021/01/20 03:31:51;;;;;;;1.83;1.67;;;;;;;4.79;74.93;95763.63;5016592;28;20172;-57
2021/01/20 03:34:17;;;;;;;1.83;1.73;;;;;;;4.47;76.14;95757.53;5016404;28;20206;-57
2021/01/20 03:36:42;;;;;;;1.50;1.40;;;;;;;4.73;75.52;95767.06;5017075;28;20211;-57
2021/01/20 03:39:07;;;;;;;1.87;1.63;;;;;;;4.60;75.59;95759.31;5016095;28;20187;-57
2021/01/20 03:41:33;;;;;;;1.80;1.70;;;;;;;4.68;76.13;95754.66;5016754;28;20200;-57
2021/01/20 03:43:58;;;;;;;1.33;1.13;;;;;;;4.72;75.44;95763.66;5016157;28;20678;-58
2021/01/20 03:46:24;;;;;;;1.33;1.17;;;;;;;4.73;74.69;95760.06;5016155;28;20186;-57
2021/01/20 03:48:49;;;;;;;1.63;1.53;;;;;;;4.88;75.43;95763.22;5016874;28;20711;-57
2021/01/20 03:51:14;;;;;;;1.50;1.20;;;;;;;4.72;75.47;95763.66;5016392;28;20179;-57
2021/01/20 03:53:40;;;;;;;1.67;1.57;;;;;;;4.82;75.74;95753.63;5015835;28;20272;-57
2021/01/20 03:56:05;;;;;;;1.43;1.33;;;;;;;4.62;76.37;95745.06;5016505;28;20255;-57
2021/01/20 03:58:30;;;;;;;1.60;1.50;;;;;;;4.73;76.08;95754.06;5016528;28;20611;-57
2021/01/20 04:00:56;;;;;;;1.60;1.50;;;;;;;4.71;75.79;95745.66;5015829;28;20208;-57
2021/01/20 04:03:21;;;;;;;1.30;1.20;;;;;;;4.67;76.72;95749.69;5015992;28;20208;-58
2021/01/20 04:05:47;;;;;;;1.27;1.10;;;;;;;4.74;75.95;95740.84;5016217;28;20180;-58
2021/01/20 04:08:12;;;;;;;2.20;1.50;;;;;;;4.98;75.94;95741.97;5015881;28;20200;-57
2021/01/20 04:10:38;;;;;;;1.03;1.03;;;;;;;4.88;75.73;95742.41;5015959;28;20685;-57
2021/01/20 04:13:03;;;;;;;1.53;1.43;;;;;;;4.99;75.10;95735.75;5015324;28;20242;-57
2021/01/20 04:15:28;;;;;;;2.07;1.80;;;;;;;4.98;74.36;95742.75;5015806;28;20223;-57
2021/01/20 04:17:54;;;;;;;1.30;1.20;;;;;;;5.16;74.46;95736.91;5016290;28;20177;-57
2021/01/20 04:20:19;;;;;;;1.20;1.10;;;;;;;5.05;73.89;95737.53;5015834;28;20279;-57
2021/01/20 04:22:45;;;;;;;1.30;1.20;;;;;;;4.98;74.78;95734.16;5015108;28;20229;-57
2021/01/20 04:25:11;;;;;;;1.57;1.47;;;;;;;5.04;74.55;95736.72;5015360;28;20228;-57
2021/01/20 04:27:37;;;;;;;1.23;1.13;;;;;;;4.78;75.04;95730.84;5015138;28;20226;-57
2021/01/20 04:30:04;;;;;;;2.67;1.43;;;;;;;4.89;75.42;95725.00;5015770;28;20420;-58
2021/01/20 04:32:30;;;;;;;1.17;1.17;;;;;;;5.05;74.24;95727.13;5015018;28;20191;-58
2021/01/20 04:34:55;;;;;;;2.30;1.30;;;;;;;5.05;74.67;95727.13;5015461;28;20427;-57
2021/01/20 04:37:20;;;;;;;2.83;1.33;;;;;;;5.12;73.86;95723.50;5016105;28;20176;-57
2021/01/20 04:39:46;;;;;;;1.63;1.33;;;;;;;5.28;73.11;95716.19;5015669;28;20175;-57
2021/01/20 04:42:11;;;;;;;1.33;1.23;;;;;;;5.41;72.61;95711.72;5015569;28;20682;-57
2021/01/20 04:44:36;;;;;;;1.30;1.20;;;;;;;5.56;71.41;95706.22;5014789;28;20542;-58
2021/01/20 04:47:04;;;;;;;1.90;1.40;;;;;;;5.41;71.86;95709.13;5015387;28;20191;-58
2021/01/20 04:49:33;;;;;;;1.60;1.30;;;;;;;5.48;71.99;95703.84;5014775;28;20529;-57
2021/01/20 04:52:01;;;;;;;1.83;1.60;;;;;;;5.59;71.34;95708.41;5015362;28;20734;-57
2021/01/20 04:54:27;;;;;;;1.67;1.40;;;;;;;5.66;70.93;95714.34;5014679;28;20453;-58
2021/01/20 04:56:55;;;;;;;1.27;1.20;;;;;;;5.48;71.27;95707.25;5015293;28;20503;-58
2021/01/20 04:59:21;;;;;;;1.47;1.30;;;;;;;5.61;70.91;95709.78;5014947;28;20407;-57
2021/01/20 05:01:49;;;;;;;1.53;1.43;;;;;;;5.48;71.09;95709.88;5014984;28;20451;-56
2021/01/20 05:04:15;;;;;;;1.10;1.07;;;;;;;5.53;71.68;95717.03;5014318;28;20261;-57
2021/01/20 05:06:44;;;;;;;2.50;1.60;;;;;;;5.44;72.01;95713.91;5015177;28;20415;-57
2021/01/20 05:09:09;;;;;;;1.60;1.50;;;;;;;5.37;71.71;95720.94;5014813;28;20184;-57
2021/01/20 05:11:36;;;;;;;1.60;1.50;;;;;;;5.39;71.45;95708.53;5014660;28;20478;-58
2021/01/20 05:14:20;;;;;;;1.77;1.67;;;;;;;5.28;72.06;95706.59;5014467;28;20602;-57
2021/01/20 05:16:51;;;;;;;2.50;1.80;;;;;;;5.33;72.25;95706.75;5014910;28;20501;-57
2021/01/20 05:19:37;;;;;;;1.33;1.20;;;;;;;5.35;71.43;95696.13;5014811;28;20579;-57
2021/01/20 05:22:11;;;;;;;2.53;2.10;;;;;;;5.36;71.13;95708.16;5013885;28;20461;-58
2021/01/20 05:24:37;;;;;;;1.80;1.70;;;;;;;5.24;72.05;95715.81;5014333;28;20511;-58
2021/01/20 05:27:04;;;;;;;1.90;1.80;;;;;;;5.43;71.32;95706.28;5014597;28;20407;-57
2021/01/20 05:29:30;;;;;;;1.97;1.87;;;;;;;5.31;71.09;95715.78;5014525;28;20434;-57
2021/01/20 05:31:55;;;;;;;1.70;1.60;;;;;;;5.37;70.97;95709.72;5014554;28;20416;-57
2021/01/20 05:34:26;;;;;;;2.00;1.80;;;;;;;5.42;71.33;95707.31;5013893;28;20199;-57
2021/01/20 05:37:03;;;;;;;2.00;1.80;;;;;;;5.51;69.72;95709.44;5014063;28;20185;-57
2021/01/20 05:39:29;;;;;;;2.77;1.87;;;;;;;5.67;69.63;95716.75;5014101;28;20431;-57
2021/01/20 05:42:10;;;;;;;1.80;1.70;;;;;;;5.55;70.38;95712.41;5014416;28;20536;-57
2021/01/20 05:44:37;;;;;;;2.03;1.87;;;;;;;5.59;70.24;95709.19;5012721;28;20461;-57
2021/01/20 05:47:07;;;;;;;1.60;1.50;;;;;;;5.54;69.64;95710.84;5014382;28;20880;-58
2021/01/20 05:49:32;;;;;;;2.20;1.73;;;;;;;5.61;69.55;95703.78;5013724;28;20419;-57
2021/01/20 05:51:59;;;;;;;1.53;1.43;;;;;;;5.64;69.67;95700.75;5014420;28;20752;-57
2021/01/20 05:54:37;;;;;;;1.90;1.70;;;;;;;5.46;70.31;95703.25;5013951;28;20220;-57
2021/01/20 05:57:13;;;;;;;1.63;1.53;;;;;;;5.48;69.60;95699.44;5014438;28;20408;-57
2021/01/20 05:59:39;;;;;;;1.63;1.53;;;;;;;5.55;69.43;95692.38;5014287;28;20415;-57
2021/01/20 06:02:05;;;;;;;1.63;1.40;;;;;;;5.67;68.62;95685.47;5014017;28;20508;-57
2021/01/20 06:04:34;;;;;;;1.40;1.30;;;;;;;5.62;68.53;95685.31;5012929;28;20451;-57
2021/01/20 06:07:05;;;;;;;1.67;1.57;;;;;;;5.47;69.25;95684.03;5014085;28;20221;-57
2021/01/20 06:09:33;;;;;;;2.40;2.00;;;;;;;5.59;69.30;95687.56;5013910;28;20419;-58
2021/01/20 06:11:59;;;;;;;2.07;1.80;;;;;;;5.61;69.17;95688.94;5014056;28;20434;-58
2021/01/20 06:14:25;;;;;;;1.90;1.70;;;;;;;5.57;69.38;95679.16;5012769;28;21022;-57
2021/01/20 06:16:53;;;;;;;1.60;1.50;;;;;;;5.65;68.95;95679.69;5013528;28;20634;-58
2021/01/20 06:19:21;;;;;;;3.10;1.90;;;;;;;5.81;68.14;95689.59;5013690;28;20176;-57
2021/01/20 06:21:47;;;;;;;2.30;2.10;;;;;;;5.81;68.65;95686.19;5013776;28;20473;-57
2021/01/20 06:24:13;;;;;;;1.57;1.47;;;;;;;5.76;67.59;95681.59;5013468;28;20534;-57
2021/01/20 06:27:09;;;;;;;1.60;1.50;;;;;;;5.91;67.67;95692.53;5013753;28;20503;-57
2021/01/20 06:29:40;;;;;;;1.57;1.40;;;;;;;6.05;67.17;95694.03;5012641;28;20201;-57
2021/01/20 06:32:08;;;;;;;1.80;1.67;;;;;;;6.11;66.23;95697.59;5013611;28;20493;-57
2021/01/20 06:34:33;;;;;;;1.70;1.60;;;;;;;6.25;65.76;95691.22;5013357;28;20494;-58
2021/01/20 06:36:59;;;;;;;2.60;1.63;;;;;;;6.17;66.57;95692.34;5013535;28;20423;-57
2021/01/20 06:39:31;;;;;;;1.90;1.70;;;;;;;6.25;65.88;95686.03;5013115;28;20236;-57
2021/01/20 06:41:58;;;;;;;1.90;1.80;;;;;;;6.22;65.82;95689.06;5013281;28;20680;-57
2021/01/20 06:44:24;;;;;;;1.87;1.77;;;;;;;6.33;65.63;95683.16;5013147;28;20865;-58
2021/01/20 06:46:55;;;;;;;1.97;1.87;;;;;;;6.28;66.28;95683.00;5013331;28;20500;-57
2021/01/20 06:49:20;;;;;;;2.90;1.93;;;;;;;6.50;65.32;95691.22;5013613;28;20563;-57
2021/01/20 06:52:12;;;;;;;2.10;1.50;;;;;;;6.35;64.52;95680.31;5017209;28;20404;-57
2021/01/20 06:54:39;;;;;;;1.90;1.80;;;;;;;6.27;64.87;95683.22;5016975;28;20251;-57
2021/01/20 06:57:27;;;;;;;1.73;1.63;;;;;;;6.50;64.71;95686.00;4997848;28;20415;-57
2021/01/20 07:00:07;;;;;;;4.77;2.23;;;;;;;6.34;64.26;95691.78;5003458;28;20475;-58
2021/01/20 07:02:34;;;;;;;7.80;3.63;;;;;;;5.95;66.36;95683.28;5016864;28;20462;-58
2021/01/20 07:05:00;;;;;;;6.87;4.37;;;;;;;5.84;66.43;95678.78;5017748;28;20490;-57
2021/01/20 07:07:49;;;;;;;11.40;4.67;;;;;;;5.82;68.07;95682.56;5017342;28;20921;-57
2021/01/20 07:10:15;;;;;;;7.20;3.87;;;;;;;5.81;66.44;95673.16;5016926;28;20424;-57
2021/01/20 07:13:09;;;;;;;9.37;2.77;;;;;;;5.84;67.48;95675.34;5016264;28;20424;-57
2021/01/20 07:15:39;;;;;;;3.53;2.23;;;;;;;5.62;67.95;95671.50;5016953;28;20429;-57
2021/01/20 07:18:07;;;;;;;4.57;1.80;;;;;;;5.86;66.77;95663.72;5017134;28;20426;-57
2021/01/20 07:20:32;;;;;;;2.53;1.60;;;;;;;5.81;67.44;95663.53;5016549;28;20419;-57
2021/01/20 07:22:59;;;;;;;2.40;1.63;;;;;;;5.77;66.79;95667.56;5016412;28;20570;-57
2021/01/20 07:25:26;;;;;;;2.90;2.00;;;;;;;5.91;66.54;95666.47;5016375;28;20197;-57
2021/01/20 07:27:52;;;;;;;3.87;1.90;;;;;;;6.13;65.55;95659.06;5015327;28;20926;-57
2021/01/20 07:30:18;;;;;;;1.80;1.60;;;;;;;6.33;65.24;95659.66;5016862;28;20408;-58
2021/01/20 07:32:44;;;;;;;3.00;2.53;;;;;;;6.34;64.42;95661.25;5016447;28;20404;-58
2021/01/20 07:35:23;;;;;;;1.80;1.70;;;;;;;6.23;64.11;95662.75;5016596;28;20474;-57
2021/01/20 07:38:06;;;;;;;2.80;2.27;;;;;;;6.31;65.66;95663.50;5015571;28;20184;-57
2021/01/20 07:40:33;;;;;;;2.23;1.90;;;;;;;6.43;64.21;95656.56;5016649;28;20490;-57
2021/01/20 07:42:59;;;;;;;1.93;1.80;;;;;;;6.45;64.37;95651.94;5016072;28;20503;-57
2021/01/20 07:45:33;;;;;;;4.20;2.03;;;;;;;6.36;64.51;95651.41;5016253;28;20784;-57
2021/01/20 07:47:59;;;;;;;3.80;2.13;;;;;;;6.06;65.18;95646.09;5016225;28;20427;-57
2021/01/20 07:50:42;;;;;;;3.80;2.00;;;;;;;5.84;66.69;95650.09;5016794;28;20400;-57
2021/01/20 07:53:13;;;;;;;1.70;1.60;;;;;;;6.06;65.77;95648.72;5015108;28;20475;-58
2021/01/20 07:55:38;;;;;;;1.70;1.60;;;;;;;6.14;65.42;95648.41;5016358;28;20443;-57
2021/01/20 07:58:04;;;;;;;2.57;1.87;;;;;;;6.25;65.52;95652.91;5015182;28;20512;-57
2021/01/20 08:00:30;;;;;;;2.97;2.60;;;;;;;6.12;66.14;95649.66;5016335;28;20177;-57
2021/01/20 08:02:57;;;;;;;3.00;2.07;;;;;;;6.21;66.12;95650.97;5014298;28;20281;-56
2021/01/20 08:05:31;;;;;;;9.47;5.33;;;;;;;6.03;66.34;95653.56;5015879;28;20259;-57
2021/01/20 08:08:13;;;;;;;6.27;3.73;;;;;;;5.96;66.95;95655.44;4996724;28;20438;-57
2021/01/20 08:10:41;;;;;;;3.43;2.67;;;;;;;5.95;67.07;95654.63;5015682;28;20420;-57
2021/01/20 08:13:14;;;;;;;6.70;2.50;;;;;;;5.86;66.56;95655.91;5015530;28;20413;-57
2021/01/20 08:15:41;;;;;;;3.67;2.10;;;;;;;5.88;67.15;95646.06;5016131;28;20411;-59
2021/01/20 08:18:08;;;;;;;1.90;1.60;;;;;;;6.15;65.66;95652.63;5015539;28;20424;-56
2021/01/20 08:20:36;;;;;;;2.17;1.90;;;;;;;5.94;66.76;95639.97;5015865;28;20755;-56
2021/01/20 08:23:04;;;;;;;2.10;1.90;;;;;;;5.97;65.53;95636.16;5009946;28;20459;-58
2021/01/20 08:25:30;;;;;;;2.47;2.00;;;;;;;5.93;65.79;95637.59;5011727;28;20452;-57
2021/01/20 08:27:55;;;;;;;4.13;2.97;;;;;;;5.77;66.91;95635.50;5011366;28;20420;-56
2021/01/20 08:30:36;;;;;;;1.90;1.80;;;;;;;5.78;66.18;95643.09;5012178;28;20177;-57
2021/01/20 08:33:02;;;;;;;5.07;2.50;;;;;;;5.92;66.46;95633.41;5009075;28;20671;-58
2021/01/20 08:35:29;;;;;;;2.43;2.20;;;;;;;6.07;65.37;95642.47;5010816;28;20444;-56
2021/01/20 08:37:55;;;;;;;2.23;2.03;;;;;;;6.01;66.08;95639.94;5011892;28;20409;-58
2021/01/20 08:40:21;;;;;;;5.53;2.67;;;;;;;5.95;66.22;95636.38;5011648;28;20499;-57
2021/01/20 08:42:46;;;;;;;2.23;1.83;;;;;;;5.92;66.17;95636.00;5010871;28;20537;-57
2021/01/20 08:45:21;;;;;;;2.10;2.00;;;;;;;6.10;66.16;95633.44;5010746;28;20634;-57
2021/01/20 08:48:08;;;;;;;2.20;1.93;;;;;;;6.05;65.46;95630.69;5011137;28;20530;-58
2021/01/20 08:50:45;;;;;;;3.83;2.37;;;;;;;6.24;65.49;95624.44;5006611;28;20428;-58
2021/01/20 08:53:13;;;;;;;3.13;2.27;;;;;;;6.43;64.30;95618.25;4991531;28;20405;-58
2021/01/20 08:55:52;;;;;;;2.17;2.03;;;;;;;6.52;63.95;95624.75;4993735;28;20425;-58
2021/01/20 08:58:31;;;;;;;5.23;2.10;;;;;;;6.10;65.78;95620.38;5002132;28;20822;-58
2021/01/20 09:01:15;;;;;;;2.57;2.37;;;;;;;6.41;63.86;95627.28;4991539;28;20806;-58
2021/01/20 09:03:54;;;;;;;2.73;1.90;;;;;;;6.24;65.28;95617.44;4995280;28;20484;-57
2021/01/20 09:06:19;;;;;;;1.70;1.60;;;;;;;6.24;65.46;95612.22;5010685;28;20499;-57
2021/01/20 09:08:44;;;;;;;2.40;1.60;;;;;;;6.24;64.04;95603.59;5011311;28;20934;-58
2021/01/20 09:11:10;;;;;;;1.80;1.50;;;;;;;6.05;65.77;95600.16;4998275;28;20174;-57
2021/01/20 09:13:35;;;;;;;2.00;1.60;;;;;;;6.16;64.88;95604.66;5008263;28;20199;-56
2021/01/20 09:16:01;;;;;;;2.00;1.70;;;;;;;6.42;63.97;95600.16;5012529;28;20180;-56
2021/01/20 09:18:26;;;;;;;2.07;1.87;;;;;;;6.38;64.17;95593.81;5013889;28;20177;-58
2021/01/20 09:20:54;;;;;;;2.70;1.97;;;;;;;6.50;64.17;95594.66;5014304;28;20177;-60
2021/01/20 09:23:20;;;;;;;1.80;1.70;;;;;;;6.64;62.89;95593.47;5013350;28;20458;-58
2021/01/20 09:25:46;;;;;;;2.40;2.00;;;;;;;6.68;63.60;95592.03;5014169;28;20435;-55
2021/01/20 09:28:12;;;;;;;4.63;2.27;;;;;;;6.83;63.07;95592.44;5014707;28;20412;-56
2021/01/20 09:30:38;;;;;;;1.80;1.70;;;;;;;6.84;62.62;95588.81;5014738;28;20417;-56
2021/01/20 09:33:04;;;;;;;3.40;2.10;;;;;;;6.84;62.24;95596.63;5013892;28;20586;-56
2021/01/20 09:35:31;;;;;;;1.77;1.67;;;;;;;6.91;61.59;95586.91;5011984;28;20861;-56
2021/01/20 09:37:56;;;;;;;2.00;1.80;;;;;;;7.03;62.21;95593.75;5014417;28;20503;-59
2021/01/20 09:40:24;;;;;;;2.10;1.87;;;;;;;7.14;61.37;95589.59;5014561;28;20504;-58
2021/01/20 09:42:50;;;;;;;2.03;1.90;;;;;;;6.99;61.80;95586.59;5013208;28;20192;-56
2021/01/20 09:45:22;;;;;;;2.63;2.20;;;;;;;6.95;61.40;95585.44;5014011;28;20472;-56
2021/01/20 09:47:48;;;;;;;2.60;2.40;;;;;;;7.20;61.59;95584.28;5013504;28;20431;-58
2021/01/20 09:50:16;;;;;;;2.87;2.57;;;;;;;7.23;60.86;95589.03;5014008;28;21861;-58
2021/01/20 09:52:44;;;;;;;2.37;2.17;;;;;;;7.40;60.68;95580.56;5013558;28;20422;-56
2021/01/20 09:55:10;;;;;;;2.90;2.23;;;;;;;7.36;60.82;95582.81;5013657;28;20936;-58
2021/01/20 09:57:36;;;;;;;2.27;2.00;;;;;;;7.45;59.98;95580.66;5013722;28;20502;-56
2021/01/20 10:00:04;;;;;;;2.87;2.50;;;;;;;7.12;61.16;95579.34;5013718;28;20490;-58
2021/01/20 10:02:30;;;;;;;3.40;2.47;;;;;;;7.02;60.95;95575.69;5012872;28;20450;-58
2021/01/20 10:04:55;;;;;;;3.43;1.97;;;;;;;6.88;62.21;95574.31;5013209;28;20845;-58
2021/01/20 10:07:22;;;;;;;2.03;1.70;;;;;;;6.96;61.24;95564.34;5014140;28;20520;-56
2021/01/20 10:09:47;;;;;;;2.30;2.10;;;;;;;6.99;60.75;95568.31;5013869;28;20232;-56
2021/01/20 10:12:14;;;;;;;3.57;2.67;;;;;;;7.04;61.34;95561.41;5013070;28;20417;-58
2021/01/20 10:14:41;;;;;;;3.50;2.30;;;;;;;7.13;61.65;95554.03;5013454;28;20186;-56
2021/01/20 10:17:06;;;;;;;2.37;2.17;;;;;;;6.91;61.87;95547.75;5012928;28;20425;-60
2021/01/20 10:19:31;;;;;;;3.20;2.90;;;;;;;7.25;60.65;95534.75;5013691;28;20479;-69
2021/01/20 10:21:57;;;;;;;6.77;3.33;;;;;;;7.58;59.70;95528.19;5013684;28;20669;-58
2021/01/20 10:24:22;;;;;;;4.20;3.20;;;;;;;7.94;59.16;95527.94;5012337;28;20691;-61
2021/01/20 10:26:48;;;;;;;4.70;3.90;;;;;;;8.01;58.60;95529.41;5013366;28;20184;-60
2021/01/20 10:29:13;;;;;;;4.23;3.00;;;;;;;7.70;57.87;95529.78;5013436;28;20187;-59
2021/01/20 10:31:40;;;;;;;2.97;2.47;;;;;;;7.70;58.10;95521.16;5013391;28;20266;-64
2021/01/20 10:34:10;;;;;;;2.17;1.97;;;;;;;7.67;58.31;95530.25;5011596;28;20294;-65
2021/01/20 10:36:37;;;;;;;3.00;2.67;;;;;;;7.66;58.75;95520.03;5013397;28;20420;-61
2021/01/20 10:39:08;;;;;;;2.23;2.13;;;;;;;7.91;57.58;95515.34;5013499;28;20893;-63
2021/01/20 10:41:34;;;;;;;5.33;3.00;;;;;;;8.00;57.11;95514.75;5012474;28;20427;-58
2021/01/20 10:43:59;;;;;;;2.37;2.17;;;;;;;8.06;56.30;95519.06;5012774;28;20509;-61
2021/01/20 10:46:25;;;;;;;2.27;2.07;;;;;;;8.26;56.35;95516.88;5013169;28;20184;-62
2021/01/20 10:48:56;;;;;;;2.40;2.30;;;;;;;8.35;55.49;95506.06;5012199;28;20179;-59
2021/01/20 10:51:22;;;;;;;3.03;2.83;;;;;;;8.59;55.90;95494.47;5008556;28;20429;-60
2021/01/20 10:53:48;;;;;;;2.57;2.37;;;;;;;8.91;55.94;95492.94;5011931;28;20794;-58
2021/01/20 10:56:13;;;;;;;2.70;2.50;;;;;;;9.17;55.57;95494.94;5009992;28;20425;-58
2021/01/20 10:58:39;;;;;;;3.20;2.37;;;;;;;9.42;55.53;95484.06;4996115;28;20431;-58
2021/01/20 11:01:04;;;;;;;2.70;2.50;;;;;;;9.53;55.12;95489.19;5012948;28;20589;-58
2021/01/20 11:03:30;;;;;;;3.60;2.40;;;;;;;9.55;53.73;95478.50;5012600;28;20202;-59
2021/01/20 11:05:56;;;;;;;2.87;2.60;;;;;;;9.41;53.43;95475.41;5013053;28;20257;-58
2021/01/20 11:08:21;;;;;;;4.17;2.83;;;;;;;8.71;54.56;95475.06;5013295;28;20494;-66
2021/01/20 11:10:47;;;;;;;4.57;3.20;;;;;;;8.72;55.24;95475.84;5012992;28;20179;-57
2021/01/20 11:13:13;;;;;;;6.53;3.27;;;;;;;8.99;55.56;95461.91;5012607;28;20636;-58
2021/01/20 11:15:45;;;;;;;3.20;2.90;;;;;;;8.83;54.74;95472.38;5012735;28;20229;-56
2021/01/20 11:18:11;;;;;;;3.10;2.53;;;;;;;9.02;55.62;95456.19;5013279;28;20886;-57
2021/01/20 11:20:37;;;;;;;4.03;3.13;;;;;;;9.15;54.80;95458.50;5012985;28;20412;-58
2021/01/20 11:23:02;;;;;;;3.33;3.03;;;;;;;9.15;55.24;95465.56;5012884;28;20480;-58
2021/01/20 11:25:27;;;;;;;4.70;3.80;;;;;;;9.20;55.27;95445.47;5012489;28;20273;-58
2021/01/20 11:27:53;;;;;;;3.20;2.90;;;;;;;8.72;56.10;95444.41;5012716;28;20180;-58
2021/01/20 11:30:19;;;;;;;2.80;2.60;;;;;;;8.56;56.99;95440.75;5012145;28;20232;-57
2021/01/20 11:32:45;;;;;;;4.70;3.10;;;;;;;8.75;56.93;95439.50;5012790;28;20170;-59
2021/01/20 11:35:12;;;;;;;3.03;2.73;;;;;;;8.55;57.01;95439.16;5012797;28;20430;-58
2021/01/20 11:37:37;;;;;;;4.50;3.10;;;;;;;8.38;57.88;95430.47;5014388;28;20417;-58
2021/01/20 11:40:04;;;;;;;2.87;2.60;;;;;;;8.28;57.78;95436.31;5016604;28;20460;-57
2021/01/20 11:42:31;;;;;;;2.90;2.70;;;;;;;8.10;58.57;95438.28;5015139;28;20197;-60
2021/01/20 11:44:56;;;;;;;3.80;3.03;;;;;;;8.07;59.18;95433.53;5007258;28;20461;-59